createdAt,value
2023-02-19T00:00:10.116Z,9.3
2023-02-19T00:05:10.141Z,9.3
2023-02-19T00:10:10.107Z,9.2
2023-02-19T00:15:10.106Z,9.2
2023-02-19T00:20:10.106Z,9.2
2023-02-19T00:25:10.103Z,9.1
2023-02-19T00:30:10.128Z,9.1
2023-02-19T00:35:10.099Z,9.1
2023-02-19T00:40:10.141Z,9
2023-02-19T00:45:10.108Z,9
2023-02-19T00:50:10.117Z,8.9
2023-02-19T00:55:10.120Z,8.9
2023-02-19T01:00:10.108Z,8.8
2023-02-19T01:05:10.098Z,8.8
2023-02-19T01:10:10.113Z,8.8
2023-02-19T01:15:10.106Z,8.8
2023-02-19T01:20:10.107Z,8.8
2023-02-19T01:25:10.092Z,8.7
2023-02-19T01:30:10.128Z,8.7
2023-02-19T01:35:10.092Z,8.7
2023-02-19T01:40:10.108Z,8.8
2023-02-19T01:45:10.095Z,8.8
2023-02-19T01:50:10.105Z,8.7
2023-02-19T01:55:10.096Z,8.7
2023-02-19T02:00:10.117Z,8.7
2023-02-19T02:05:10.110Z,8.8
2023-02-19T02:10:10.106Z,8.8
2023-02-19T02:15:10.107Z,8.9
2023-02-19T02:20:10.110Z,9
2023-02-19T02:25:10.106Z,9
2023-02-19T02:30:10.180Z,9
2023-02-19T02:35:10.125Z,9.1
2023-02-19T02:40:10.099Z,9.1
2023-02-19T02:45:10.113Z,9.1
2023-02-19T02:50:10.115Z,9.1
2023-02-19T02:55:10.121Z,9.1
2023-02-19T03:00:10.104Z,9.1
2023-02-19T03:05:10.099Z,9.1
2023-02-19T03:10:10.110Z,9.1
2023-02-19T03:15:10.106Z,9.1
2023-02-19T03:20:10.107Z,9
2023-02-19T03:25:10.102Z,9
2023-02-19T03:30:10.189Z,9
2023-02-19T03:35:10.106Z,9
2023-02-19T03:40:10.098Z,9.1
2023-02-19T03:45:10.120Z,9
2023-02-19T03:50:10.110Z,9
2023-02-19T03:55:10.098Z,9
2023-02-19T04:00:10.108Z,9
2023-02-19T04:05:10.761Z,8.9
2023-02-19T04:10:10.099Z,8.9
2023-02-19T04:15:10.126Z,8.9
2023-02-19T04:20:10.113Z,8.9
2023-02-19T04:25:10.111Z,8.9
2023-02-19T04:30:10.133Z,8.9
2023-02-19T04:35:10.113Z,8.9
2023-02-19T04:40:10.092Z,8.8
2023-02-19T04:45:10.095Z,8.7
2023-02-19T04:50:10.108Z,8.6
2023-02-19T04:55:10.102Z,8.7
2023-02-19T05:00:10.108Z,8.8
2023-02-19T05:05:10.113Z,8.8
2023-02-19T05:10:10.103Z,8.7
2023-02-19T05:15:10.097Z,8.7
2023-02-19T05:20:10.105Z,8.7
2023-02-19T05:25:10.108Z,8.6
2023-02-19T05:30:10.123Z,8.5
2023-02-19T05:35:10.097Z,8.5
2023-02-19T05:40:10.105Z,8.4
2023-02-19T05:45:10.091Z,8.4
2023-02-19T05:50:10.102Z,8.4
2023-02-19T05:55:10.110Z,8.3
2023-02-19T06:00:10.093Z,8.3
2023-02-19T06:05:10.100Z,8.3
2023-02-19T06:10:10.088Z,8.3
2023-02-19T06:15:10.099Z,8.3
2023-02-19T06:20:10.098Z,8.3
2023-02-19T06:25:10.098Z,8.4
2023-02-19T06:30:10.137Z,8.4
2023-02-19T06:35:10.089Z,8.5
2023-02-19T06:40:10.113Z,8.5
2023-02-19T06:45:10.108Z,8.6
2023-02-19T06:50:10.116Z,8.7
2023-02-19T06:55:10.103Z,8.7
2023-02-19T07:00:10.101Z,8.7
2023-02-19T07:05:10.112Z,8.7
2023-02-19T07:10:10.099Z,8.8
2023-02-19T07:15:10.098Z,8.8
2023-02-19T07:20:10.104Z,8.8
2023-02-19T07:25:10.109Z,8.8
2023-02-19T07:30:10.148Z,8.8
2023-02-19T07:35:10.102Z,8.9
2023-02-19T07:40:10.110Z,8.9
2023-02-19T07:45:10.099Z,9
2023-02-19T07:50:11.342Z,9
2023-02-19T07:55:10.099Z,9
2023-02-19T08:00:10.097Z,9
2023-02-19T08:05:10.116Z,9
2023-02-19T08:10:10.100Z,9
2023-02-19T08:15:10.111Z,9
2023-02-19T08:20:10.108Z,8.9
2023-02-19T08:25:10.101Z,8.8
2023-02-19T08:30:10.156Z,8.7
2023-02-19T08:35:10.101Z,8.7
2023-02-19T08:40:10.105Z,8.8
2023-02-19T08:45:10.103Z,8.8
2023-02-19T08:50:10.097Z,8.9
2023-02-19T08:55:10.102Z,8.9
2023-02-19T09:00:10.108Z,8.9
2023-02-19T09:05:10.099Z,8.9
2023-02-19T09:10:10.104Z,8.9
2023-02-19T09:15:10.112Z,9
2023-02-19T09:20:10.110Z,9
2023-02-19T09:25:10.102Z,9
2023-02-19T09:30:10.134Z,9.3
2023-02-19T09:35:10.105Z,9.3
2023-02-19T09:40:10.098Z,9.3
2023-02-19T09:45:10.096Z,9.2
2023-02-19T09:50:10.100Z,9.2
2023-02-19T09:55:10.099Z,9.2
2023-02-19T10:00:10.752Z,9.2
2023-02-19T10:05:10.132Z,9.4
2023-02-19T10:10:10.114Z,9.4
2023-02-19T10:15:10.108Z,9.4
2023-02-19T10:20:10.087Z,9.3
2023-02-19T10:25:10.086Z,9.4
2023-02-19T10:30:10.112Z,9.5
2023-02-19T10:35:10.099Z,9.6
2023-02-19T10:40:10.116Z,9.6
2023-02-19T10:45:10.099Z,9.4
2023-02-19T10:50:10.105Z,9.4
2023-02-19T10:55:10.102Z,9.4
2023-02-19T11:00:10.114Z,9.4
2023-02-19T11:05:10.108Z,9.3
2023-02-19T11:10:10.092Z,9.2
2023-02-19T11:15:10.088Z,9.3
2023-02-19T11:20:10.088Z,9.3
2023-02-19T11:25:10.087Z,9.4
2023-02-19T11:30:10.108Z,9.4
2023-02-19T11:35:10.102Z,9.5
2023-02-19T11:40:10.106Z,9.6
2023-02-19T11:45:10.109Z,9.6
2023-02-19T11:50:10.106Z,9.6
2023-02-19T11:55:10.103Z,9.6
2023-02-19T12:00:10.111Z,9.6
2023-02-19T12:05:10.191Z,9.7
2023-02-19T12:10:10.100Z,9.6
2023-02-19T12:15:10.104Z,9.6
2023-02-19T12:20:10.104Z,9.7
2023-02-19T12:25:10.101Z,9.7
2023-02-19T12:30:10.122Z,9.8
2023-02-19T12:35:10.097Z,9.8
2023-02-19T12:40:10.102Z,9.9
2023-02-19T12:45:10.089Z,9.7
2023-02-19T12:50:10.091Z,9.6
2023-02-19T12:55:10.101Z,9.7
2023-02-19T13:00:10.114Z,9.8
2023-02-19T13:05:10.090Z,9.7
2023-02-19T13:10:10.193Z,9.8
2023-02-19T13:15:10.103Z,9.9
2023-02-19T13:20:10.136Z,9.9
2023-02-19T13:25:10.348Z,9.9
2023-02-19T13:30:10.186Z,9.9
2023-02-19T13:35:11.508Z,9.8
2023-02-19T13:40:10.116Z,9.8
2023-02-19T13:45:10.103Z,9.9
2023-02-19T13:50:11.324Z,10.1
2023-02-19T13:55:10.106Z,10.2
2023-02-19T14:00:10.119Z,10.3
2023-02-19T14:05:10.112Z,10.2
2023-02-19T14:10:10.126Z,10.2
2023-02-19T14:15:10.114Z,10.1
2023-02-19T14:20:10.111Z,10.1
2023-02-19T14:25:10.112Z,10
2023-02-19T14:30:10.170Z,10
2023-02-19T14:35:10.122Z,10
2023-02-19T14:40:10.122Z,10
2023-02-19T14:45:10.118Z,9.9
2023-02-19T14:50:10.124Z,9.9
2023-02-19T14:55:10.106Z,9.9
2023-02-19T15:00:10.112Z,9.8
2023-02-19T15:05:10.100Z,9.6
2023-02-19T15:10:10.097Z,9.5
2023-02-19T15:15:10.097Z,9.5
2023-02-19T15:20:10.100Z,9.4
2023-02-19T15:25:10.102Z,9.6
2023-02-19T15:30:10.231Z,9.6
2023-02-19T15:35:10.099Z,9.6
2023-02-19T15:40:10.104Z,9.6
2023-02-19T15:45:10.094Z,9.5
2023-02-19T15:50:10.109Z,9.5
2023-02-19T15:55:10.094Z,9.5
2023-02-19T16:00:10.133Z,9.5
2023-02-19T16:05:10.101Z,9.4
2023-02-19T16:10:10.109Z,9.4
2023-02-19T16:15:10.108Z,9.4
2023-02-19T16:20:10.105Z,9.3
2023-02-19T16:25:10.100Z,9.3
2023-02-19T16:30:10.152Z,9.2
2023-02-19T16:35:10.105Z,9.2
2023-02-19T16:40:10.117Z,9.2
2023-02-19T16:45:10.102Z,9.1
2023-02-19T16:50:10.104Z,9
2023-02-19T16:55:10.106Z,9
2023-02-19T17:00:10.113Z,9
2023-02-19T17:05:10.111Z,9
2023-02-19T17:10:10.104Z,8.9
2023-02-19T17:15:10.101Z,8.8
2023-02-19T17:20:10.114Z,8.6
2023-02-19T17:25:10.106Z,8.5
2023-02-19T17:30:10.226Z,8.5
2023-02-19T17:35:10.095Z,8.4
2023-02-19T17:40:10.092Z,8.3
2023-02-19T17:45:10.103Z,8.3
2023-02-19T17:50:10.096Z,8.3
2023-02-19T17:55:10.107Z,8.3
2023-02-19T18:00:10.129Z,8.3
2023-02-19T18:05:10.096Z,8.3
2023-02-19T18:10:10.120Z,8.2
2023-02-19T18:15:10.107Z,8.1
2023-02-19T18:20:10.103Z,8.1
2023-02-19T18:25:10.091Z,8.2
2023-02-19T18:30:10.174Z,8.2
2023-02-19T18:35:10.105Z,8.2
2023-02-19T18:40:10.106Z,8.1
2023-02-19T18:45:10.106Z,8.1
2023-02-19T18:50:10.113Z,8.1
2023-02-19T18:55:10.111Z,8.1
2023-02-19T19:00:10.097Z,8.1
2023-02-19T19:05:10.097Z,8
2023-02-19T19:10:10.114Z,8
2023-02-19T19:15:10.107Z,8
2023-02-19T19:20:10.102Z,7.9
2023-02-19T19:25:10.111Z,7.9
2023-02-19T19:30:10.136Z,7.9
2023-02-19T19:35:10.109Z,7.9
2023-02-19T19:40:10.114Z,8
2023-02-19T19:45:10.159Z,7.9
2023-02-19T19:50:10.121Z,7.9
2023-02-19T19:55:10.113Z,7.8
2023-02-19T20:00:10.107Z,7.8
2023-02-19T20:05:10.101Z,7.7
2023-02-19T20:10:10.111Z,7.7
2023-02-19T20:15:10.116Z,7.7
2023-02-19T20:20:10.127Z,7.8
2023-02-19T20:25:10.098Z,7.7
2023-02-19T20:30:11.354Z,7.7
2023-02-19T20:35:10.097Z,7.7
2023-02-19T20:40:10.111Z,7.7
2023-02-19T20:45:10.099Z,7.7
2023-02-19T20:50:10.110Z,7.7
2023-02-19T20:55:10.099Z,7.6
2023-02-19T21:00:10.110Z,7.6
2023-02-19T21:05:10.109Z,7.6
2023-02-19T21:10:10.112Z,7.6
2023-02-19T21:15:10.112Z,7.6
2023-02-19T21:20:10.105Z,7.6
2023-02-19T21:25:10.113Z,7.5
2023-02-19T21:30:10.163Z,7.6
2023-02-19T21:35:10.102Z,7.6
2023-02-19T21:40:10.104Z,7.6
2023-02-19T21:45:10.094Z,7.6
2023-02-19T21:50:10.106Z,7.5
2023-02-19T21:55:10.105Z,7.5
2023-02-19T22:00:10.098Z,7.5
2023-02-19T22:05:10.101Z,7.5
2023-02-19T22:10:10.099Z,7.5
2023-02-19T22:15:10.083Z,7.5
2023-02-19T22:20:10.094Z,7.6
2023-02-19T22:25:10.097Z,7.6
2023-02-19T22:30:10.109Z,7.5
2023-02-19T22:35:10.098Z,7.5
2023-02-19T22:40:10.102Z,7.4
2023-02-19T22:45:10.090Z,7.3
2023-02-19T22:50:10.104Z,7.2
2023-02-19T22:55:10.092Z,7.2
2023-02-19T23:00:10.101Z,7.2
2023-02-19T23:05:10.096Z,7.1
2023-02-19T23:10:10.097Z,7.1
2023-02-19T23:15:10.106Z,7
2023-02-19T23:20:10.174Z,7
2023-02-19T23:25:10.097Z,7
2023-02-19T23:30:10.144Z,7.1
2023-02-19T23:35:10.112Z,7.1
2023-02-19T23:40:10.104Z,7.1
2023-02-19T23:45:10.097Z,7.1
2023-02-19T23:50:10.094Z,7.2
2023-02-19T23:55:10.098Z,7.1
